createdAt,value
2023-02-07T09:48:26.169Z,100.00
2023-02-07T09:51:29.543Z,100.00
2023-02-07T09:54:38.955Z,100.00
2023-02-07T09:57:50.647Z,100.00
2023-02-07T10:01:01.293Z,100.00
2023-02-07T10:04:23.220Z,100.00
2023-02-07T10:07:25.801Z,100.00
2023-02-07T10:10:37.540Z,100.00
2023-02-07T10:13:54.368Z,100.00
2023-02-07T10:17:16.505Z,100.00
2023-02-07T10:20:33.443Z,100.00
2023-02-07T10:23:43.560Z,100.00
2023-02-07T10:26:51.288Z,100.00
2023-02-07T10:29:57.788Z,100.00
2023-02-07T10:33:05.636Z,100.00
2023-02-07T10:36:15.715Z,100.00
2023-02-07T10:39:24.673Z,100.00
2023-02-07T10:42:29.806Z,100.00
2023-02-07T10:45:32.445Z,100.00
2023-02-07T10:48:35.026Z,95.95
2023-02-07T10:51:44.161Z,94.40
2023-02-07T10:54:53.368Z,94.59
2023-02-07T10:58:02.609Z,96.00
2023-02-07T11:01:07.142Z,94.20
2023-02-07T11:04:23.891Z,91.00
2023-02-07T11:07:32.506Z,91.54
2023-02-07T11:10:43.541Z,91.09
2023-02-07T11:13:48.748Z,88.66
2023-02-07T11:16:51.236Z,90.42
2023-02-07T11:19:53.960Z,90.67
2023-02-07T11:22:59.105Z,90.51
2023-02-07T11:26:04.506Z,88.78
2023-02-07T11:29:14.539Z,87.23
2023-02-07T11:32:17.889Z,85.03
2023-02-07T11:35:22.140Z,84.70
2023-02-07T11:38:29.828Z,86.67
2023-02-07T11:41:34.704Z,88.40
2023-02-07T11:44:42.649Z,86.71
2023-02-07T11:47:48.637Z,85.32
2023-02-07T11:50:55.698Z,85.69
2023-02-07T11:54:02.243Z,85.78
2023-02-07T11:57:07.183Z,86.10
2023-02-07T12:00:19.485Z,87.58
2023-02-07T12:03:25.005Z,91.45
2023-02-07T12:06:33.273Z,92.73
2023-02-07T12:09:44.260Z,91.13
2023-02-07T12:12:50.737Z,91.58
2023-02-07T12:15:57.519Z,93.60
2023-02-07T12:19:06.147Z,91.72
2023-02-07T12:22:15.259Z,89.45
2023-02-07T12:25:23.800Z,89.37
2023-02-07T12:28:32.274Z,91.84
2023-02-07T12:31:42.346Z,91.44
2023-02-07T12:34:52.725Z,88.88
2023-02-07T12:38:01.740Z,86.06
2023-02-07T12:41:14.815Z,84.18
2023-02-07T12:44:24.519Z,82.05
2023-02-07T12:47:38.155Z,81.03
2023-02-07T12:51:09.925Z,80.60
2023-02-07T12:54:29.932Z,78.64
2023-02-07T12:57:40.342Z,77.03
2023-02-07T13:00:55.781Z,75.79
2023-02-07T13:04:22.680Z,76.45
2023-02-07T13:07:39.257Z,77.73
2023-02-07T13:10:54.926Z,76.20
2023-02-07T13:14:12.840Z,74.16
2023-02-07T13:17:35.796Z,72.55
2023-02-07T13:20:48.786Z,76.92
2023-02-07T13:23:51.382Z,78.36
2023-02-07T13:26:57.423Z,78.48
2023-02-07T13:30:02.453Z,78.16
2023-02-07T13:33:17.844Z,77.79
2023-02-07T13:36:28.280Z,76.48
2023-02-07T13:39:43.521Z,78.41
2023-02-07T13:42:51.355Z,78.32
2023-02-07T13:46:01.522Z,76.28
2023-02-07T13:49:10.903Z,74.99
2023-02-07T13:52:19.829Z,73.22
2023-02-07T13:55:31.833Z,72.18
2023-02-07T13:59:11.247Z,73.33
2023-02-07T14:02:20.086Z,73.88
2023-02-07T14:05:26.590Z,70.57
2023-02-07T14:08:29.230Z,70.22
2023-02-07T14:11:37.904Z,68.38
2023-02-07T14:14:41.345Z,68.81
2023-02-07T14:18:00.087Z,65.97
2023-02-07T14:21:04.061Z,65.51
2023-02-07T14:24:21.565Z,65.19
2023-02-07T14:27:32.261Z,64.39
2023-02-07T14:30:38.979Z,66.31
2023-02-07T14:33:42.921Z,66.73
2023-02-07T14:36:45.557Z,68.02
2023-02-07T14:39:49.188Z,68.91
2023-02-07T14:42:57.945Z,69.26
2023-02-07T14:46:11.433Z,70.05
2023-02-07T14:49:21.894Z,71.21
2023-02-07T14:52:26.951Z,71.76
2023-02-07T14:55:34.408Z,71.73
2023-02-07T14:58:41.136Z,72.89
2023-02-07T15:01:43.978Z,73.75
2023-02-07T15:04:47.752Z,76.77
2023-02-07T15:07:56.738Z,79.78
2023-02-07T15:11:02.430Z,82.41
2023-02-07T15:14:06.321Z,83.93
2023-02-07T15:17:08.859Z,85.86
2023-02-07T15:20:16.580Z,86.60
2023-02-07T15:23:19.639Z,87.31
2023-02-07T15:26:22.257Z,88.54
2023-02-07T15:29:26.751Z,86.61
2023-02-07T15:32:33.626Z,86.02
2023-02-07T15:35:39.657Z,88.09
2023-02-07T15:38:42.339Z,89.37
2023-02-07T15:41:46.148Z,89.84
2023-02-07T15:44:50.830Z,90.37
2023-02-07T15:47:58.869Z,90.46
2023-02-07T15:51:05.843Z,90.62
2023-02-07T15:54:13.516Z,91.22
2023-02-07T15:57:26.939Z,92.09
2023-02-07T16:17:32.342Z,100.00
